Time;durP1;ratioP1;P1;durP2;ratioP2;P2;SDS_P1;SDS_P2;PMS_P1;PMS_P2;Temp;Humidity;BMP_temperature;BMP_pressure;BME280_temperature;BME280_humidity;BME280_pressure;Samples;Min_cycle;Max_cycle;Signal;HPM_P1;HPM_P2
2021/09/19 00:00:42;;;;;;;;;;;20.10;85.50;;;;;;4274329;33;42631;-79
2021/09/19 00:03:09;;;;;;;;;;;20.10;85.50;;;;;;4274267;33;43461;-79
2021/09/19 00:05:40;;;;;;;;;;;20.10;85.60;;;;;;4273767;33;44235;-79
2021/09/19 00:08:07;;;;;;;;;;;20.10;85.50;;;;;;4274916;33;45790;-79
2021/09/19 00:10:34;;;;;;;;;;;20.10;85.40;;;;;;4274329;33;42469;-79
2021/09/19 00:13:01;;;;;;;;;;;20.10;85.50;;;;;;4273164;33;42806;-79
2021/09/19 00:15:28;;;;;;;;;;;20.00;85.50;;;;;;4261356;33;43459;-79
2021/09/19 00:17:55;;;;;;;;;;;20.00;85.50;;;;;;4274309;33;42303;-79
2021/09/19 00:20:23;;;;;;;;;;;20.00;85.50;;;;;;4274123;33;42825;-79
2021/09/19 00:22:56;;;;;;;;;;;20.00;85.50;;;;;;4274186;33;43881;-79
2021/09/19 00:25:23;;;;;;;;;;;19.90;85.50;;;;;;4274655;33;44161;-79
2021/09/19 00:27:52;;;;;;;;;;;20.00;85.60;;;;;;4274145;33;44176;-78
2021/09/19 00:30:20;;;;;;;;;;;20.00;86.40;;;;;;4274256;33;44135;-79
2021/09/19 00:32:47;;;;;;;;;;;19.90;85.50;;;;;;4274535;33;44438;-79
2021/09/19 00:35:16;;;;;;;;;;;19.90;85.60;;;;;;4273301;33;43485;-79
2021/09/19 00:37:46;;;;;;;;;;;19.90;85.60;;;;;;4273432;33;43106;-79
2021/09/19 00:40:16;;;;;;;;;;;19.90;85.60;;;;;;4272849;33;44409;-79
2021/09/19 00:42:43;;;;;;;;;;;19.90;85.60;;;;;;4273723;33;44287;-79
2021/09/19 00:45:12;;;;;;;;;;;19.80;85.50;;;;;;4273782;33;42709;-78
2021/09/19 00:47:47;;;;;;;;;;;19.80;85.60;;;;;;4273010;33;42881;-79
2021/09/19 00:50:16;;;;;;;;;;;19.80;85.60;;;;;;4272986;33;43542;-79
2021/09/19 00:52:45;;;;;;;;;;;19.80;85.60;;;;;;4273011;33;43648;-79
2021/09/19 00:55:18;;;;;;;;;;;19.80;85.60;;;;;;4272940;33;43892;-79
2021/09/19 00:57:46;;;;;;;;;;;19.80;85.60;;;;;;4274258;33;46145;-78
2021/09/19 01:00:15;;;;;;;;;;;19.80;85.70;;;;;;4273681;33;43994;-79
2021/09/19 01:02:47;;;;;;;;;;;19.80;85.70;;;;;;4273441;33;43640;-79
2021/09/19 01:05:19;;;;;;;;;;;19.70;85.60;;;;;;4273903;33;44279;-79
2021/09/19 01:07:46;;;;;;;;;;;19.70;85.70;;;;;;4261368;33;43721;-79
2021/09/19 01:10:18;;;;;;;;;;;19.70;85.60;;;;;;4273640;33;43048;-79
2021/09/19 01:12:46;;;;;;;;;;;19.70;85.70;;;;;;4273469;33;42767;-79
2021/09/19 01:15:13;;;;;;;;;;;19.70;85.70;;;;;;4273771;33;44219;-79
2021/09/19 01:17:42;;;;;;;;;;;19.70;85.70;;;;;;4272646;33;43327;-79
2021/09/19 01:20:13;;;;;;;;;;;19.70;85.80;;;;;;4273319;33;43835;-79
2021/09/19 01:22:59;;;;;;;;;;;19.70;85.80;;;;;;4272596;33;43586;-79
2021/09/19 01:25:30;;;;;;;;;;;19.60;85.80;;;;;;4261198;33;44113;-79
2021/09/19 01:27:57;;;;;;;;;;;19.60;85.90;;;;;;4273749;33;43750;-79
2021/09/19 01:30:24;;;;;;;;;;;19.60;86.00;;;;;;4273702;33;43206;-79
2021/09/19 01:32:51;;;;;;;;;;;19.60;86.00;;;;;;4260477;33;43482;-79
2021/09/19 01:35:18;;;;;;;;;;;19.60;86.00;;;;;;4273157;33;44057;-79
2021/09/19 01:37:45;;;;;;;;;;;19.60;86.00;;;;;;4273611;33;43775;-79
2021/09/19 01:40:13;;;;;;;;;;;19.60;86.00;;;;;;4273364;33;42343;-79
2021/09/19 01:42:41;;;;;;;;;;;19.60;86.00;;;;;;4273327;33;42104;-79
2021/09/19 01:45:11;;;;;;;;;;;19.50;85.90;;;;;;4273312;33;44862;-79
2021/09/19 01:47:41;;;;;;;;;;;19.50;86.00;;;;;;4271969;33;43486;-78
2021/09/19 01:50:08;;;;;;;;;;;19.50;86.00;;;;;;4272892;33;43900;-79
2021/09/19 01:52:36;;;;;;;;;;;19.50;86.10;;;;;;4260437;33;42272;-79
2021/09/19 01:55:03;;;;;;;;;;;19.50;86.10;;;;;;4272177;33;42865;-78
2021/09/19 01:57:33;;;;;;;;;;;19.50;86.10;;;;;;4273251;33;44258;-79
2021/09/19 02:00:00;;;;;;;;;;;19.50;86.10;;;;;;4273160;33;44482;-79
2021/09/19 02:02:27;;;;;;;;;;;19.40;86.00;;;;;;4272588;33;44106;-79
2021/09/19 02:04:55;;;;;;;;;;;19.40;86.00;;;;;;4272819;33;44299;-79
2021/09/19 02:07:25;;;;;;;;;;;19.40;85.90;;;;;;4273017;33;42684;-78
2021/09/19 02:09:52;;;;;;;;;;;19.40;86.00;;;;;;4260386;33;45779;-78
2021/09/19 02:12:19;;;;;;;;;;;19.40;86.00;;;;;;4272059;33;43248;-79
2021/09/19 02:14:46;;;;;;;;;;;19.40;86.20;;;;;;4272767;33;43339;-79
2021/09/19 02:17:19;;;;;;;;;;;19.30;86.20;;;;;;4272640;33;43023;-79
2021/09/19 02:19:46;;;;;;;;;;;19.30;86.20;;;;;;4272399;33;45367;-79
2021/09/19 02:22:16;;;;;;;;;;;19.30;86.30;;;;;;4272564;33;45708;-79
2021/09/19 02:24:43;;;;;;;;;;;19.30;86.40;;;;;;4272445;33;43927;-79
2021/09/19 02:27:10;;;;;;;;;;;19.30;86.40;;;;;;4272875;33;44325;-79
2021/09/19 02:29:43;;;;;;;;;;;19.30;86.40;;;;;;4271615;33;44329;-79
2021/09/19 02:32:10;;;;;;;;;;;19.20;86.40;;;;;;4259688;33;42744;-79
2021/09/19 02:34:37;;;;;;;;;;;19.30;86.50;;;;;;4260117;33;43380;-79
2021/09/19 02:37:04;;;;;;;;;;;19.20;86.40;;;;;;4271569;33;43377;-79
2021/09/19 02:39:31;;;;;;;;;;;19.20;86.40;;;;;;4272662;33;43938;-79
2021/09/19 02:41:58;;;;;;;;;;;19.20;86.40;;;;;;4272190;33;44913;-79
2021/09/19 02:44:26;;;;;;;;;;;19.20;86.40;;;;;;4272483;33;43494;-79
2021/09/19 02:46:53;;;;;;;;;;;19.20;86.40;;;;;;4272493;33;43533;-79
2021/09/19 02:49:22;;;;;;;;;;;19.20;86.40;;;;;;4260001;33;43851;-79
2021/09/19 02:51:49;;;;;;;;;;;19.10;86.40;;;;;;4271588;33;43681;-79
2021/09/19 02:54:16;;;;;;;;;;;19.20;86.40;;;;;;4259376;33;43444;-78
2021/09/19 02:56:44;;;;;;;;;;;19.10;86.40;;;;;;4259601;33;42646;-79
2021/09/19 02:59:11;;;;;;;;;;;19.10;86.50;;;;;;4271748;33;44267;-79
2021/09/19 03:01:41;;;;;;;;;;;19.10;86.50;;;;;;4268838;33;42811;-79
2021/09/19 03:04:11;;;;;;;;;;;19.10;86.60;;;;;;4259419;33;43791;-79
2021/09/19 03:06:41;;;;;;;;;;;19.10;86.50;;;;;;4260891;33;44263;-79
2021/09/19 03:09:13;;;;;;;;;;;19.10;86.50;;;;;;4261430;33;45133;-79
2021/09/19 03:11:42;;;;;;;;;;;19.00;86.50;;;;;;4260915;33;43186;-79
2021/09/19 03:14:12;;;;;;;;;;;19.00;86.50;;;;;;4261032;33;43830;-79
2021/09/19 03:16:39;;;;;;;;;;;19.00;86.60;;;;;;4260627;33;45008;-79
2021/09/19 03:19:06;;;;;;;;;;;19.00;86.60;;;;;;4261203;33;43008;-79
2021/09/19 03:21:34;;;;;;;;;;;19.00;86.70;;;;;;4260741;33;44124;-79
2021/09/19 03:24:04;;;;;;;;;;;19.00;86.60;;;;;;4271487;33;42643;-79
2021/09/19 03:26:31;;;;;;;;;;;19.00;86.70;;;;;;4261305;33;43819;-79
2021/09/19 03:28:58;;;;;;;;;;;19.00;86.70;;;;;;4260033;33;43989;-79
2021/09/19 03:31:25;;;;;;;;;;;19.00;86.70;;;;;;4260267;33;44267;-79
2021/09/19 03:33:52;;;;;;;;;;;18.90;86.70;;;;;;4261059;33;43286;-79
2021/09/19 03:36:20;;;;;;;;;;;18.90;86.70;;;;;;4260611;33;44153;-79
2021/09/19 03:38:47;;;;;;;;;;;18.90;86.60;;;;;;4260704;33;43584;-79
2021/09/19 03:41:14;;;;;;;;;;;18.90;86.60;;;;;;4271305;33;43754;-79
2021/09/19 03:43:44;;;;;;;;;;;18.90;86.70;;;;;;4260492;33;43714;-79
2021/09/19 03:46:11;;;;;;;;;;;18.80;86.60;;;;;;4260858;33;43874;-79
2021/09/19 03:48:38;;;;;;;;;;;18.80;86.70;;;;;;4260933;33;43335;-79
2021/09/19 03:51:08;;;;;;;;;;;18.80;86.60;;;;;;4260563;33;43912;-79
2021/09/19 03:53:35;;;;;;;;;;;18.80;86.60;;;;;;4271937;33;20007;-79
2021/09/19 03:56:03;;;;;;;;;;;18.80;86.80;;;;;;4260317;33;43650;-79
2021/09/19 03:58:35;;;;;;;;;;;18.80;86.70;;;;;;4260275;33;44296;-79
2021/09/19 04:01:02;;;;;;;;;;;18.80;86.80;;;;;;4260794;33;44040;-79
2021/09/19 04:03:30;;;;;;;;;;;18.70;86.70;;;;;;4273869;33;43742;-79
2021/09/19 04:05:57;;;;;;;;;;;18.70;86.70;;;;;;4274535;33;42623;-79
2021/09/19 04:08:30;;;;;;;;;;;18.70;86.60;;;;;;4273286;33;43482;-79
2021/09/19 04:10:57;;;;;;;;;;;18.70;86.60;;;;;;4274579;33;43196;-79
2021/09/19 04:13:27;;;;;;;;;;;18.70;86.70;;;;;;4274856;33;44027;-80
2021/09/19 04:15:54;;;;;;;;;;;18.60;86.70;;;;;;4260947;33;43862;-79
2021/09/19 04:18:23;;;;;;;;;;;18.60;86.70;;;;;;4261935;33;42953;-79
2021/09/19 04:20:50;;;;;;;;;;;18.60;86.70;;;;;;4261522;33;42837;-79
2021/09/19 04:23:17;;;;;;;;;;;18.60;86.80;;;;;;4273110;33;43043;-79
2021/09/19 04:25:45;;;;;;;;;;;18.60;87.70;;;;;;4274444;33;42670;-79
2021/09/19 04:28:12;;;;;;;;;;;18.60;86.90;;;;;;4261681;33;43658;-79
2021/09/19 04:30:39;;;;;;;;;;;18.60;86.90;;;;;;4274499;33;43926;-79
2021/09/19 04:33:06;;;;;;;;;;;18.50;86.80;;;;;;4273975;33;42917;-79
2021/09/19 04:35:33;;;;;;;;;;;18.60;86.90;;;;;;4274265;33;43267;-79
2021/09/19 04:38:00;;;;;;;;;;;18.50;86.80;;;;;;4273380;33;43792;-79
2021/09/19 04:40:27;;;;;;;;;;;18.50;86.80;;;;;;4273900;33;43929;-79
2021/09/19 04:42:54;;;;;;;;;;;18.50;86.80;;;;;;4274254;33;43958;-79
2021/09/19 04:45:21;;;;;;;;;;;18.50;86.90;;;;;;4273806;33;43375;-79
2021/09/19 04:47:49;;;;;;;;;;;18.50;87.00;;;;;;4261153;33;43734;-79
2021/09/19 04:50:16;;;;;;;;;;;18.50;87.00;;;;;;4272648;33;43358;-79
2021/09/19 04:52:43;;;;;;;;;;;18.50;87.00;;;;;;4274205;33;45120;-79
2021/09/19 04:55:10;;;;;;;;;;;18.50;87.00;;;;;;4273075;33;44184;-79
2021/09/19 04:57:38;;;;;;;;;;;18.50;87.00;;;;;;4273096;33;42836;-79
2021/09/19 05:00:06;;;;;;;;;;;18.50;87.20;;;;;;4273758;33;43054;-79
2021/09/19 05:02:35;;;;;;;;;;;18.40;87.10;;;;;;4273581;33;42933;-79
2021/09/19 05:05:06;;;;;;;;;;;18.40;87.10;;;;;;4273542;33;44108;-79
2021/09/19 05:07:33;;;;;;;;;;;18.40;87.10;;;;;;4260872;33;43895;-79
2021/09/19 05:10:04;;;;;;;;;;;18.40;87.10;;;;;;4272856;33;45868;-79
2021/09/19 05:12:31;;;;;;;;;;;18.40;87.30;;;;;;4273393;33;43560;-79
2021/09/19 05:14:58;;;;;;;;;;;18.40;87.30;;;;;;4273548;33;43680;-79
2021/09/19 05:17:31;;;;;;;;;;;18.40;87.30;;;;;;4273289;33;42618;-80
2021/09/19 05:20:01;;;;;;;;;;;18.40;87.40;;;;;;4273909;33;43877;-79
2021/09/19 05:22:33;;;;;;;;;;;18.40;87.30;;;;;;4273257;33;42618;-79
2021/09/19 05:25:00;;;;;;;;;;;18.40;87.30;;;;;;4274079;33;43840;-79
2021/09/19 05:27:27;;;;;;;;;;;18.30;87.30;;;;;;4273249;33;43196;-79
2021/09/19 05:29:54;;;;;;;;;;;18.30;87.30;;;;;;4272602;33;42978;-80
2021/09/19 05:32:21;;;;;;;;;;;18.30;87.40;;;;;;4273438;33;42777;-79
2021/09/19 05:34:48;;;;;;;;;;;18.30;87.40;;;;;;4273061;33;43633;-79
2021/09/19 05:37:18;;;;;;;;;;;18.30;87.40;;;;;;4271940;33;44212;-79
2021/09/19 05:39:45;;;;;;;;;;;18.30;87.50;;;;;;4272998;33;45057;-80
2021/09/19 05:42:12;;;;;;;;;;;18.30;87.60;;;;;;4273554;33;45311;-80
2021/09/19 05:44:42;;;;;;;;;;;18.30;87.60;;;;;;4260449;33;42822;-80
2021/09/19 05:47:09;;;;;;;;;;;18.30;87.70;;;;;;4271912;33;43012;-79
2021/09/19 05:49:36;;;;;;;;;;;18.20;87.60;;;;;;4273133;33;44574;-79
2021/09/19 05:52:03;;;;;;;;;;;18.30;87.70;;;;;;4260624;33;44007;-79
2021/09/19 05:54:30;;;;;;;;;;;18.20;87.60;;;;;;4272857;33;43181;-79
2021/09/19 05:56:57;;;;;;;;;;;18.20;87.60;;;;;;4273281;33;43240;-79
2021/09/19 05:59:24;;;;;;;;;;;18.20;87.70;;;;;;4272222;33;44090;-79
2021/09/19 06:01:52;;;;;;;;;;;18.20;87.70;;;;;;4271604;33;43240;-79
2021/09/19 06:04:19;;;;;;;;;;;18.20;87.80;;;;;;4260445;33;43180;-79
2021/09/19 06:06:48;;;;;;;;;;;18.20;87.80;;;;;;4273115;33;43197;-79
2021/09/19 06:09:15;;;;;;;;;;;18.20;87.90;;;;;;4260091;33;43425;-79
2021/09/19 06:11:42;;;;;;;;;;;18.20;87.90;;;;;;4272746;33;44416;-79
2021/09/19 06:14:10;;;;;;;;;;;18.20;88.10;;;;;;4272724;33;43789;-79
2021/09/19 06:16:40;;;;;;;;;;;18.20;88.10;;;;;;4259860;33;43490;-79
2021/09/19 06:19:07;;;;;;;;;;;18.10;88.10;;;;;;4272511;33;42236;-79
2021/09/19 06:21:34;;;;;;;;;;;18.20;88.20;;;;;;4272636;33;42736;-79
2021/09/19 06:24:01;;;;;;;;;;;18.10;88.20;;;;;;4272567;33;46102;-79
2021/09/19 06:26:34;;;;;;;;;;;18.10;88.20;;;;;;4272458;33;42784;-79
2021/09/19 06:29:01;;;;;;;;;;;18.10;88.20;;;;;;4272513;33;43234;-80
2021/09/19 06:31:28;;;;;;;;;;;18.10;88.30;;;;;;4272822;33;43511;-79
2021/09/19 06:33:58;;;;;;;;;;;18.10;88.40;;;;;;4272419;33;42964;-79
2021/09/19 06:36:26;;;;;;;;;;;18.10;88.50;;;;;;4260332;33;45801;-79
2021/09/19 06:38:53;;;;;;;;;;;18.10;88.50;;;;;;4271016;33;42848;-79
2021/09/19 06:41:20;;;;;;;;;;;18.10;88.60;;;;;;4271808;33;43280;-79
2021/09/19 06:43:47;;;;;;;;;;;18.10;88.70;;;;;;4272716;33;42698;-79
2021/09/19 06:46:14;;;;;;;;;;;18.10;88.70;;;;;;4272245;33;43520;-79
2021/09/19 06:48:44;;;;;;;;;;;18.10;88.80;;;;;;4272329;33;43782;-79
2021/09/19 06:51:11;;;;;;;;;;;18.10;88.90;;;;;;4272186;33;46018;-79
2021/09/19 06:53:38;;;;;;;;;;;18.10;88.90;;;;;;4272247;33;44089;-79
2021/09/19 06:56:05;;;;;;;;;;;18.10;89.00;;;;;;4272506;33;44355;-79
2021/09/19 06:58:32;;;;;;;;;;;18.10;89.00;;;;;;4272541;33;43897;-79
2021/09/19 07:00:59;;;;;;;;;;;18.10;89.10;;;;;;4259613;33;45002;-79
2021/09/19 07:03:27;;;;;;;;;;;18.00;89.00;;;;;;4272184;33;43569;-79
2021/09/19 07:05:54;;;;;;;;;;;18.10;89.10;;;;;;4271642;33;43183;-79
2021/09/19 07:08:21;;;;;;;;;;;18.00;89.10;;;;;;4259793;33;43904;-79
2021/09/19 07:10:48;;;;;;;;;;;18.00;89.20;;;;;;4272126;33;42830;-79
2021/09/19 07:13:16;;;;;;;;;;;18.00;89.30;;;;;;4272555;33;43803;-79
2021/09/19 07:15:43;;;;;;;;;;;18.10;89.40;;;;;;4272121;33;44102;-79
2021/09/19 07:18:10;;;;;;;;;;;18.00;89.40;;;;;;4272023;33;43838;-79
2021/09/19 07:20:37;;;;;;;;;;;18.00;89.50;;;;;;4272290;33;43119;-79
2021/09/19 07:23:07;;;;;;;;;;;18.00;89.50;;;;;;4272535;33;43190;-79
2021/09/19 07:25:36;;;;;;;;;;;18.00;89.60;;;;;;4271111;33;42425;-79
2021/09/19 07:28:06;;;;;;;;;;;18.00;89.70;;;;;;4272515;33;43024;-79
2021/09/19 07:30:34;;;;;;;;;;;18.00;89.80;;;;;;4272545;33;43999;-79
2021/09/19 07:33:01;;;;;;;;;;;18.00;89.80;;;;;;4259719;33;43894;-79
2021/09/19 07:35:29;;;;;;;;;;;18.00;89.90;;;;;;4259443;33;43996;-80
2021/09/19 07:37:56;;;;;;;;;;;18.00;90.00;;;;;;4259431;33;43780;-80
2021/09/19 07:40:23;;;;;;;;;;;18.00;90.00;;;;;;4259287;33;42753;-79
2021/09/19 07:42:51;;;;;;;;;;;18.00;90.10;;;;;;4271295;33;42695;-80
2021/09/19 07:45:18;;;;;;;;;;;18.00;90.10;;;;;;4272392;33;44220;-79
2021/09/19 07:47:46;;;;;;;;;;;18.00;90.10;;;;;;4271205;33;43518;-79
2021/09/19 07:50:13;;;;;;;;;;;18.00;90.20;;;;;;4260617;33;44655;-79
2021/09/19 07:52:40;;;;;;;;;;;18.00;90.20;;;;;;4262320;33;43159;-79
2021/09/19 07:55:07;;;;;;;;;;;18.00;90.20;;;;;;4275990;33;20014;-79
2021/09/19 07:57:35;;;;;;;;;;;18.00;90.20;;;;;;4274475;33;43071;-79
2021/09/19 08:00:04;;;;;;;;;;;18.00;90.20;;;;;;4274629;33;44319;-79
2021/09/19 08:02:31;;;;;;;;;;;18.00;90.20;;;;;;4273372;33;44263;-79
2021/09/19 08:05:00;;;;;;;;;;;18.00;90.30;;;;;;4262330;33;43284;-79
2021/09/19 08:07:30;;;;;;;;;;;18.00;90.30;;;;;;4274694;33;44296;-79
2021/09/19 08:09:57;;;;;;;;;;;18.00;90.30;;;;;;4274774;33;43465;-79
2021/09/19 08:12:27;;;;;;;;;;;18.00;90.30;;;;;;4261670;33;42897;-79
2021/09/19 08:14:57;;;;;;;;;;;18.00;90.30;;;;;;4273471;33;43731;-79
2021/09/19 08:17:24;;;;;;;;;;;18.10;90.30;;;;;;4273425;33;44684;-79
2021/09/19 08:19:51;;;;;;;;;;;18.10;90.30;;;;;;4274247;33;43312;-79
2021/09/19 08:22:18;;;;;;;;;;;18.10;90.40;;;;;;4273666;33;44233;-79
2021/09/19 08:24:45;;;;;;;;;;;18.10;90.40;;;;;;4274573;33;43876;-79
2021/09/19 08:27:12;;;;;;;;;;;18.10;90.40;;;;;;4261382;33;43484;-80
2021/09/19 08:29:39;;;;;;;;;;;18.10;90.40;;;;;;4261696;33;44102;-79
2021/09/19 08:32:06;;;;;;;;;;;18.10;90.40;;;;;;4274384;33;43944;-79
2021/09/19 08:34:36;;;;;;;;;;;18.10;90.40;;;;;;4274015;33;42420;-80
2021/09/19 08:37:06;;;;;;;;;;;18.10;90.50;;;;;;4273313;33;43601;-79
2021/09/19 08:39:33;;;;;;;;;;;18.10;90.50;;;;;;4273900;33;42963;-79
2021/09/19 08:42:03;;;;;;;;;;;18.10;90.50;;;;;;4273400;33;43141;-79
2021/09/19 08:44:30;;;;;;;;;;;18.10;90.50;;;;;;4273849;33;43470;-79
2021/09/19 08:46:58;;;;;;;;;;;18.10;90.50;;;;;;4272760;33;43904;-79
2021/09/19 08:49:25;;;;;;;;;;;18.20;90.50;;;;;;4261648;33;43431;-79
2021/09/19 08:51:52;;;;;;;;;;;18.20;90.50;;;;;;4272685;33;44022;-79
2021/09/19 08:54:19;;;;;;;;;;;18.20;90.50;;;;;;4261609;33;43947;-79
2021/09/19 08:56:47;;;;;;;;;;;18.20;90.50;;;;;;4261616;33;43644;-79
2021/09/19 08:59:16;;;;;;;;;;;18.20;90.50;;;;;;4273089;33;43473;-79
2021/09/19 09:02:00;;;;;;;;;;;18.20;90.50;;;;;;4273385;33;43867;-79
2021/09/19 09:04:28;;;;;;;;;;;18.20;90.50;;;;;;4273770;33;43281;-79
2021/09/19 09:06:55;;;;;;;;;;;18.20;90.50;;;;;;4273655;33;43062;-79
2021/09/19 09:09:22;;;;;;;;;;;18.20;90.50;;;;;;4272966;33;44238;-79
2021/09/19 09:12:03;;;;;;;;;;;18.30;90.60;;;;;;4273890;33;44750;-79
2021/09/19 09:14:37;;;;;;;;;;;18.20;90.50;;;;;;4273459;33;43998;-79
2021/09/19 09:17:34;;;;;;;;;;;18.30;90.60;;;;;;4273535;33;44821;-79
2021/09/19 09:20:02;;;;;;;;;;;18.30;90.60;;;;;;4264485;33;46056;-79
2021/09/19 09:22:30;;;;;;;;;;;18.30;90.60;;;;;;4273705;33;44216;-80
2021/09/19 09:25:03;;;;;;;;;;;18.30;90.60;;;;;;4273661;33;44071;-79
2021/09/19 09:27:35;;;;;;;;;;;18.30;90.60;;;;;;4273695;33;44256;-79
2021/09/19 09:30:09;;;;;;;;;;;18.30;90.60;;;;;;4272334;33;42901;-79
2021/09/19 09:32:54;;;;;;;;;;;18.30;90.60;;;;;;4272170;33;43060;-79
2021/09/19 09:35:29;;;;;;;;;;;18.40;90.60;;;;;;4273691;33;42914;-79
2021/09/19 09:37:57;;;;;;;;;;;18.30;90.60;;;;;;4260856;33;43853;-79
2021/09/19 09:40:31;;;;;;;;;;;18.40;90.60;;;;;;4260636;33;44678;-79
2021/09/19 09:43:08;;;;;;;;;;;18.40;90.60;;;;;;4272285;33;43007;-80
2021/09/19 09:45:37;;;;;;;;;;;18.40;90.60;;;;;;4273513;33;44207;-79
2021/09/19 09:48:21;;;;;;;;;;;18.40;90.60;;;;;;4273055;33;42561;-79
2021/09/19 09:50:49;;;;;;;;;;;18.40;90.60;;;;;;4273509;33;43842;-79
2021/09/19 09:53:18;;;;;;;;;;;18.40;90.60;;;;;;4271834;33;41961;-79
2021/09/19 09:55:45;;;;;;;;;;;18.40;90.60;;;;;;4273129;33;43496;-79
2021/09/19 09:58:13;;;;;;;;;;;18.40;90.60;;;;;;4272779;33;44222;-79
2021/09/19 10:00:41;;;;;;;;;;;18.40;90.60;;;;;;4272869;33;44098;-79
2021/09/19 10:03:08;;;;;;;;;;;18.40;90.60;;;;;;4272667;33;45555;-79
2021/09/19 10:05:36;;;;;;;;;;;18.50;90.60;;;;;;4272924;33;42679;-80
2021/09/19 10:08:03;;;;;;;;;;;18.40;90.60;;;;;;4272918;33;43780;-79
2021/09/19 10:10:32;;;;;;;;;;;18.50;90.70;;;;;;4273198;33;44061;-79
2021/09/19 10:12:59;;;;;;;;;;;18.50;90.70;;;;;;4271595;33;42997;-79
2021/09/19 10:15:27;;;;;;;;;;;18.50;90.70;;;;;;4260370;33;43462;-79
2021/09/19 10:17:54;;;;;;;;;;;18.50;90.70;;;;;;4259963;33;42534;-79
2021/09/19 10:20:29;;;;;;;;;;;18.50;90.70;;;;;;4273044;33;43915;-79
2021/09/19 10:22:56;;;;;;;;;;;18.50;90.70;;;;;;4260157;33;42710;-79
2021/09/19 10:25:37;;;;;;;;;;;18.50;90.70;;;;;;4272554;33;43781;-79
2021/09/19 10:28:18;;;;;;;;;;;18.50;90.70;;;;;;4272932;33;44590;-79
2021/09/19 10:31:04;;;;;;;;;;;18.60;90.70;;;;;;4271884;33;43890;-79
2021/09/19 10:33:40;;;;;;;;;;;18.60;90.70;;;;;;4272885;33;43471;-80
2021/09/19 10:36:20;;;;;;;;;;;18.60;90.70;;;;;;4271585;33;44624;-79
2021/09/19 10:38:47;;;;;;;;;;;18.60;90.70;;;;;;4273043;33;43184;-79
2021/09/19 10:41:17;;;;;;;;;;;18.70;90.80;;;;;;4272502;33;42691;-79
2021/09/19 10:43:53;;;;;;;;;;;18.70;90.80;;;;;;4259808;33;44420;-79
2021/09/19 10:46:35;;;;;;;;;;;18.70;90.80;;;;;;4272807;33;44198;-79
2021/09/19 10:49:17;;;;;;;;;;;18.70;90.80;;;;;;4271374;33;43223;-79
2021/09/19 10:51:59;;;;;;;;;;;18.70;90.80;;;;;;4259528;33;43234;-79
2021/09/19 10:54:50;;;;;;;;;;;18.70;90.70;;;;;;4271674;33;44877;-79
2021/09/19 10:57:20;;;;;;;;;;;18.70;90.70;;;;;;4273387;33;20058;-79
2021/09/19 11:00:06;;;;;;;;;;;18.70;90.70;;;;;;4272255;33;42644;-78
2021/09/19 11:02:34;;;;;;;;;;;18.80;90.80;;;;;;4272110;33;45347;-78
2021/09/19 11:05:20;;;;;;;;;;;18.80;90.80;;;;;;4272593;33;42241;-79
2021/09/19 11:07:51;;;;;;;;;;;18.80;90.80;;;;;;4272780;33;42953;-78
2021/09/19 11:10:18;;;;;;;;;;;18.80;90.80;;;;;;4272295;33;44116;-79
2021/09/19 11:12:46;;;;;;;;;;;18.80;90.80;;;;;;4272321;33;43038;-79
2021/09/19 11:15:22;;;;;;;;;;;18.90;90.80;;;;;;4271755;33;43564;-78
2021/09/19 11:17:49;;;;;;;;;;;18.90;90.80;;;;;;4272225;33;43427;-79
2021/09/19 11:20:17;;;;;;;;;;;18.90;90.80;;;;;;4259194;33;43762;-79
2021/09/19 11:22:48;;;;;;;;;;;18.90;90.80;;;;;;4271210;33;43276;-78
2021/09/19 11:25:16;;;;;;;;;;;18.90;90.80;;;;;;4273319;33;44990;-78
2021/09/19 11:27:45;;;;;;;;;;;18.90;90.80;;;;;;4275055;33;20002;-79
2021/09/19 11:30:13;;;;;;;;;;;19.00;90.80;;;;;;4274832;33;44575;-79
2021/09/19 11:32:40;;;;;;;;;;;19.00;90.80;;;;;;4274822;33;42269;-79
2021/09/19 11:35:08;;;;;;;;;;;19.00;90.80;;;;;;4274749;33;43368;-79
2021/09/19 11:37:35;;;;;;;;;;;19.00;90.80;;;;;;4262337;33;42991;-78
2021/09/19 11:40:09;;;;;;;;;;;19.10;90.80;;;;;;4274998;33;45885;-78
2021/09/19 11:42:37;;;;;;;;;;;19.10;90.80;;;;;;4273747;33;45152;-78
2021/09/19 11:45:10;;;;;;;;;;;19.10;90.80;;;;;;4274690;33;43302;-78
2021/09/19 11:47:40;;;;;;;;;;;19.10;90.80;;;;;;4275219;33;43737;-78
2021/09/19 11:50:07;;;;;;;;;;;19.10;90.80;;;;;;4274865;33;43012;-78
2021/09/19 11:52:34;;;;;;;;;;;19.10;90.80;;;;;;4275068;33;44537;-78
2021/09/19 11:55:02;;;;;;;;;;;19.20;90.80;;;;;;4274878;33;44101;-78
2021/09/19 11:57:29;;;;;;;;;;;19.20;90.80;;;;;;4273474;33;44079;-78
2021/09/19 12:00:03;;;;;;;;;;;19.20;90.80;;;;;;4274833;33;42925;-78
2021/09/19 12:02:30;;;;;;;;;;;19.30;90.90;;;;;;4274363;33;43841;-78
2021/09/19 12:05:00;;;;;;;;;;;19.30;90.80;;;;;;4274645;33;45828;-78
2021/09/19 12:07:27;;;;;;;;;;;19.30;90.90;;;;;;4274808;33;42858;-78
2021/09/19 12:09:54;;;;;;;;;;;19.40;90.90;;;;;;4262061;33;44240;-78
2021/09/19 12:12:22;;;;;;;;;;;19.40;90.90;;;;;;4274260;33;43644;-79
2021/09/19 12:14:53;;;;;;;;;;;19.40;90.90;;;;;;4273184;33;44066;-78
2021/09/19 12:17:27;;;;;;;;;;;19.50;90.90;;;;;;4274887;33;43990;-78
2021/09/19 12:19:58;;;;;;;;;;;19.50;90.90;;;;;;4274220;33;44013;-78
2021/09/19 12:22:26;;;;;;;;;;;19.50;90.90;;;;;;4274762;33;44726;-78
2021/09/19 12:24:58;;;;;;;;;;;19.50;90.90;;;;;;4274549;33;42779;-78
2021/09/19 12:27:26;;;;;;;;;;;19.60;90.90;;;;;;4274768;33;43188;-77
2021/09/19 12:30:05;;;;;;;;;;;19.60;90.90;;;;;;4274252;33;42900;-78
2021/09/19 12:32:37;;;;;;;;;;;19.60;90.80;;;;;;4273018;33;43193;-78
2021/09/19 12:35:17;;;;;;;;;;;19.70;90.80;;;;;;4273535;33;43491;-78
2021/09/19 12:37:46;;;;;;;;;;;19.70;90.80;;;;;;4260498;33;42960;-77
2021/09/19 12:40:23;;;;;;;;;;;19.70;90.80;;;;;;4273837;33;43021;-78
2021/09/19 12:42:52;;;;;;;;;;;19.80;90.90;;;;;;4274548;33;44356;-78
2021/09/19 12:45:23;;;;;;;;;;;19.80;90.90;;;;;;4274308;33;45029;-78
2021/09/19 12:47:54;;;;;;;;;;;19.80;90.90;;;;;;4274185;33;44059;-78
2021/09/19 12:50:22;;;;;;;;;;;19.90;90.90;;;;;;4273966;33;43306;-78
2021/09/19 12:53:00;;;;;;;;;;;19.90;90.80;;;;;;4261899;33;43478;-78
2021/09/19 12:55:29;;;;;;;;;;;19.90;90.80;;;;;;4274018;33;42593;-78
2021/09/19 12:57:57;;;;;;;;;;;20.00;90.80;;;;;;4261120;33;43764;-78
2021/09/19 13:00:26;;;;;;;;;;;20.00;90.80;;;;;;4274483;33;20050;-79
2021/09/19 13:03:00;;;;;;;;;;;20.10;90.80;;;;;;4273534;33;44881;-78
2021/09/19 13:05:28;;;;;;;;;;;20.10;90.80;;;;;;4273528;33;43966;-78
2021/09/19 13:07:55;;;;;;;;;;;20.10;90.80;;;;;;4272971;33;43911;-78
2021/09/19 13:10:22;;;;;;;;;;;20.20;90.80;;;;;;4273554;33;44251;-77
2021/09/19 13:12:50;;;;;;;;;;;20.20;90.70;;;;;;4261195;33;44232;-78
2021/09/19 13:15:21;;;;;;;;;;;20.20;90.70;;;;;;4273944;33;43764;-78
2021/09/19 13:17:49;;;;;;;;;;;20.20;90.70;;;;;;4273351;33;43485;-78
2021/09/19 13:20:16;;;;;;;;;;;20.30;90.60;;;;;;4273438;33;42684;-78
2021/09/19 13:22:43;;;;;;;;;;;20.30;90.60;;;;;;4260703;33;43066;-78
2021/09/19 13:25:13;;;;;;;;;;;20.30;90.50;;;;;;4273295;33;42371;-78
2021/09/19 13:27:40;;;;;;;;;;;20.40;90.50;;;;;;4273219;33;42905;-78
2021/09/19 13:30:07;;;;;;;;;;;20.40;90.50;;;;;;4273471;33;43829;-78
2021/09/19 13:32:37;;;;;;;;;;;20.40;90.40;;;;;;4261092;33;42706;-78
2021/09/19 13:35:06;;;;;;;;;;;20.40;90.30;;;;;;4273102;33;44136;-78
2021/09/19 13:37:33;;;;;;;;;;;20.50;90.30;;;;;;4273108;33;44224;-78
2021/09/19 13:40:01;;;;;;;;;;;20.50;90.30;;;;;;4272368;33;44048;-78
2021/09/19 13:42:28;;;;;;;;;;;20.50;90.20;;;;;;4260480;33;43803;-79
2021/09/19 13:44:55;;;;;;;;;;;20.60;90.20;;;;;;4272136;33;44210;-78
2021/09/19 13:47:25;;;;;;;;;;;20.60;90.10;;;;;;4273041;33;44244;-78
2021/09/19 13:49:53;;;;;;;;;;;20.60;90.10;;;;;;4260742;33;43638;-78
2021/09/19 13:52:20;;;;;;;;;;;20.60;90.00;;;;;;4273253;33;43270;-78
2021/09/19 13:54:47;;;;;;;;;;;20.70;90.00;;;;;;4273113;33;43310;-78
2021/09/19 13:57:14;;;;;;;;;;;20.70;90.00;;;;;;4271674;33;43460;-78
2021/09/19 13:59:41;;;;;;;;;;;20.70;89.80;;;;;;4272779;33;43174;-78
2021/09/19 14:02:08;;;;;;;;;;;20.70;89.60;;;;;;4260416;33;43990;-78
2021/09/19 14:04:36;;;;;;;;;;;20.80;89.60;;;;;;4273062;33;44180;-78
2021/09/19 14:07:03;;;;;;;;;;;20.80;89.40;;;;;;4272141;33;43041;-78
2021/09/19 14:09:32;;;;;;;;;;;20.90;89.30;;;;;;4271835;33;43306;-78
2021/09/19 14:11:59;;;;;;;;;;;20.90;89.20;;;;;;4272101;33;43652;-78
2021/09/19 14:14:29;;;;;;;;;;;20.90;88.90;;;;;;4272663;33;43072;-77
2021/09/19 14:16:56;;;;;;;;;;;20.90;88.90;;;;;;4260444;33;43943;-77
2021/09/19 14:19:23;;;;;;;;;;;20.90;88.70;;;;;;4272831;33;44247;-77
2021/09/19 14:21:51;;;;;;;;;;;21.00;88.60;;;;;;4272558;33;44204;-77
2021/09/19 14:24:20;;;;;;;;;;;21.00;88.40;;;;;;4272444;33;44014;-77
2021/09/19 14:26:47;;;;;;;;;;;21.00;88.10;;;;;;4272471;33;43767;-78